Time;durP1;ratioP1;P1;durP2;ratioP2;P2;SDS_P1;SDS_P2;PMS_P1;PMS_P2;Temp;Humidity;BMP_temperature;BMP_pressure;BME280_temperature;BME280_humidity;BME280_pressure;Samples;Min_cycle;Max_cycle;Signal;HPM_P1;HPM_P2
2024/04/13 00:02:19;;;;;;;6.43;3.22;;;;;;;;;;5384615;26;20073;-72
2024/04/13 00:04:44;;;;;;;8.82;4.05;;;;;;;;;;5397596;26;20008;-72
2024/04/13 00:07:10;;;;;;;5.85;3.50;;;;;;;;;;5393787;26;20448;-72
2024/04/13 00:09:36;;;;;;;5.90;3.33;;;;;;;;;;5394019;26;20001;-72
2024/04/13 00:12:01;;;;;;;7.53;3.60;;;;;;;;;;5386830;26;20000;-72
2024/04/13 00:14:26;;;;;;;6.70;2.92;;;;;;;;;;5396173;26;20008;-72
2024/04/13 00:16:52;;;;;;;5.20;2.72;;;;;;;;;;5382963;26;20001;-72
2024/04/13 00:19:17;;;;;;;5.60;2.78;;;;;;;;;;5408747;26;20379;-72
2024/04/13 00:21:42;;;;;;;6.80;3.35;;;;;;;;;;5389256;26;20456;-72
2024/04/13 00:24:07;;;;;;;5.10;3.35;;;;;;;;;;5391609;26;20006;-72
2024/04/13 00:26:34;;;;;;;6.22;3.80;;;;;;;;;;5381824;26;20000;-72
2024/04/13 00:28:59;;;;;;;5.35;3.15;;;;;;;;;;5394361;26;20084;-72
2024/04/13 00:31:25;;;;;;;6.93;3.60;;;;;;;;;;5390914;26;20442;-72
2024/04/13 00:33:51;;;;;;;6.20;2.97;;;;;;;;;;5401423;26;19996;-72
2024/04/13 00:36:17;;;;;;;5.15;3.30;;;;;;;;;;5399710;26;20030;-72
2024/04/13 00:38:42;;;;;;;5.30;2.95;;;;;;;;;;5406272;26;20004;-72
2024/04/13 00:41:07;;;;;;;5.22;2.58;;;;;;;;;;5402090;26;20018;-72
2024/04/13 00:43:32;;;;;;;3.88;2.53;;;;;;;;;;5395643;26;20461;-72
2024/04/13 00:46:06;;;;;;;4.95;3.17;;;;;;;;;;5404062;26;20007;-72
2024/04/13 00:48:32;;;;;;;10.35;3.28;;;;;;;;;;5408884;26;20003;-72
2024/04/13 00:50:58;;;;;;;4.15;2.80;;;;;;;;;;5405716;26;20017;-72
2024/04/13 00:53:24;;;;;;;4.65;2.55;;;;;;;;;;5407978;26;20000;-72
2024/04/13 00:55:52;;;;;;;5.60;2.90;;;;;;;;;;5398616;26;20019;-72
2024/04/13 00:58:25;;;;;;;4.60;2.67;;;;;;;;;;5398266;26;20039;-72
2024/04/13 01:00:51;;;;;;;4.93;2.80;;;;;;;;;;5408097;26;20016;-72
2024/04/13 01:03:16;;;;;;;5.68;3.00;;;;;;;;;;5409096;26;20463;-72
2024/04/13 01:05:41;;;;;;;4.88;2.55;;;;;;;;;;5402721;26;19995;-72
2024/04/13 01:08:07;;;;;;;4.25;2.45;;;;;;;;;;5402041;26;20014;-72
2024/04/13 01:10:32;;;;;;;4.15;2.45;;;;;;;;;;5397548;26;20004;-72
2024/04/13 01:12:57;;;;;;;4.97;2.42;;;;;;;;;;5398288;26;19992;-72
2024/04/13 01:15:27;;;;;;;3.88;1.90;;;;;;;;;;5414464;26;20004;-72
2024/04/13 01:17:53;;;;;;;4.93;2.42;;;;;;;;;;5411809;26;20473;-72
2024/04/13 01:20:18;;;;;;;4.68;2.78;;;;;;;;;;5409304;26;20000;-72
2024/04/13 01:22:43;;;;;;;4.57;2.50;;;;;;;;;;5401659;26;20001;-72
2024/04/13 01:25:09;;;;;;;6.72;2.38;;;;;;;;;;5403743;26;20009;-72
2024/04/13 01:27:35;;;;;;;5.45;2.45;;;;;;;;;;5409624;26;20020;-72
2024/04/13 01:30:00;;;;;;;5.18;2.63;;;;;;;;;;5415125;26;20388;-72
2024/04/13 01:32:25;;;;;;;5.68;2.60;;;;;;;;;;5410936;26;20015;-72
2024/04/13 01:34:51;;;;;;;3.67;2.08;;;;;;;;;;5411819;26;20003;-71
2024/04/13 01:37:16;;;;;;;3.50;2.03;;;;;;;;;;5407077;26;20467;-72
2024/04/13 01:39:42;;;;;;;4.70;2.13;;;;;;;;;;5396023;26;20353;-72
2024/04/13 01:42:07;;;;;;;6.30;4.00;;;;;;;;;;5408253;26;20018;-72
2024/04/13 01:44:33;;;;;;;7.45;2.58;;;;;;;;;;5405157;26;20019;-72
2024/04/13 01:47:01;;;;;;;4.93;2.90;;;;;;;;;;5399568;26;20000;-72
2024/04/13 01:49:26;;;;;;;6.32;2.00;;;;;;;;;;5406418;26;20381;-72
2024/04/13 01:51:51;;;;;;;6.85;2.33;;;;;;;;;;5400943;26;19992;-72
2024/04/13 01:54:17;;;;;;;4.95;2.25;;;;;;;;;;5409464;26;20007;-72
2024/04/13 01:56:42;;;;;;;3.80;2.20;;;;;;;;;;5414494;26;20010;-72
2024/04/13 01:59:08;;;;;;;3.70;2.28;;;;;;;;;;5411675;26;20520;-72
2024/04/13 02:01:33;;;;;;;4.50;2.08;;;;;;;;;;5410161;26;20027;-72
2024/04/13 02:03:59;;;;;;;4.72;2.35;;;;;;;;;;5407010;26;20376;-72
2024/04/13 02:06:24;;;;;;;4.32;2.60;;;;;;;;;;5401569;26;19988;-72
2024/04/13 02:08:49;;;;;;;4.20;2.45;;;;;;;;;;5404391;26;20003;-72
2024/04/13 02:11:15;;;;;;;4.55;2.20;;;;;;;;;;5413520;26;20002;-72
2024/04/13 02:13:40;;;;;;;4.05;2.17;;;;;;;;;;5405534;26;19999;-72
2024/04/13 02:16:05;;;;;;;4.43;2.30;;;;;;;;;;5411035;26;19995;-72
2024/04/13 02:18:31;;;;;;;5.05;2.88;;;;;;;;;;5403114;26;19991;-72
2024/04/13 02:20:56;;;;;;;4.07;2.00;;;;;;;;;;5400441;26;19996;-72
2024/04/13 02:23:21;;;;;;;5.32;2.00;;;;;;;;;;5408009;26;20010;-72
2024/04/13 02:25:47;;;;;;;4.15;2.55;;;;;;;;;;5411116;26;20027;-72
2024/04/13 02:28:12;;;;;;;4.47;2.50;;;;;;;;;;5410058;26;20000;-72
2024/04/13 02:30:38;;;;;;;4.00;2.20;;;;;;;;;;5407846;26;20000;-72
2024/04/13 02:33:03;;;;;;;3.83;2.22;;;;;;;;;;5409295;26;19995;-71
2024/04/13 02:35:29;;;;;;;5.05;1.95;;;;;;;;;;5398134;26;20376;-72
2024/04/13 02:37:55;;;;;;;5.05;2.50;;;;;;;;;;5410925;26;20011;-72
2024/04/13 02:40:23;;;;;;;3.83;1.98;;;;;;;;;;5411776;26;19996;-72
2024/04/13 02:42:51;;;;;;;4.88;2.40;;;;;;;;;;5409423;26;20472;-71
2024/04/13 02:45:18;;;;;;;5.78;2.30;;;;;;;;;;5406322;26;20360;-72
2024/04/13 02:47:43;;;;;;;3.50;2.10;;;;;;;;;;5398149;26;20005;-72
2024/04/13 02:50:08;;;;;;;4.70;2.63;;;;;;;;;;5408422;26;20014;-72
2024/04/13 02:52:34;;;;;;;6.13;2.53;;;;;;;;;;5413567;26;20014;-72
2024/04/13 02:54:59;;;;;;;5.55;2.85;;;;;;;;;;5408316;26;20011;-72
2024/04/13 02:57:24;;;;;;;3.75;2.28;;;;;;;;;;5408450;26;20003;-71
2024/04/13 02:59:50;;;;;;;4.57;2.45;;;;;;;;;;5401014;26;20453;-72
2024/04/13 03:02:16;;;;;;;6.22;2.70;;;;;;;;;;5408510;26;20500;-72
2024/04/13 03:04:41;;;;;;;3.92;2.63;;;;;;;;;;5407183;26;19995;-71
2024/04/13 03:07:06;;;;;;;4.13;2.30;;;;;;;;;;5411994;26;20004;-71
2024/04/13 03:09:31;;;;;;;4.07;2.22;;;;;;;;;;5409678;26;20463;-71
2024/04/13 03:11:57;;;;;;;7.18;2.65;;;;;;;;;;5404286;26;20011;-71
2024/04/13 03:14:22;;;;;;;4.20;2.30;;;;;;;;;;5406553;26;20013;-72
2024/04/13 03:16:47;;;;;;;6.35;2.50;;;;;;;;;;5402930;26;20008;-72
2024/04/13 03:19:15;;;;;;;6.07;2.30;;;;;;;;;;5399194;26;19999;-72
2024/04/13 03:21:40;;;;;;;5.50;3.30;;;;;;;;;;5402600;26;20004;-72
2024/04/13 03:24:06;;;;;;;4.10;2.67;;;;;;;;;;5407895;26;20467;-72
2024/04/13 03:26:31;;;;;;;6.22;3.30;;;;;;;;;;5402765;26;20003;-72
2024/04/13 03:28:56;;;;;;;4.53;2.70;;;;;;;;;;5401728;26;20000;-72
2024/04/13 03:31:22;;;;;;;4.90;2.03;;;;;;;;;;5398544;26;20340;-72
2024/04/13 03:33:48;;;;;;;4.82;2.75;;;;;;;;;;5409177;26;20439;-72
2024/04/13 03:36:14;;;;;;;4.80;2.47;;;;;;;;;;5411781;26;20003;-72
2024/04/13 03:38:39;;;;;;;5.35;2.75;;;;;;;;;;5405434;26;20084;-72
2024/04/13 03:41:05;;;;;;;5.20;2.50;;;;;;;;;;5402776;26;20007;-72
2024/04/13 03:43:31;;;;;;;6.20;2.55;;;;;;;;;;5399483;26;19996;-72
2024/04/13 03:45:58;;;;;;;3.80;2.38;;;;;;;;;;5398244;26;20000;-71
2024/04/13 03:48:23;;;;;;;5.53;2.83;;;;;;;;;;5412331;26;20061;-72
2024/04/13 03:50:49;;;;;;;3.80;2.40;;;;;;;;;;5407180;26;20456;-72
2024/04/13 03:53:14;;;;;;;5.15;2.28;;;;;;;;;;5407175;26;20475;-72
2024/04/13 03:55:39;;;;;;;3.90;2.40;;;;;;;;;;5400331;26;19995;-72
2024/04/13 03:58:05;;;;;;;4.60;2.47;;;;;;;;;;5402421;26;19992;-72
2024/04/13 04:00:31;;;;;;;6.57;2.92;;;;;;;;;;5407369;26;19995;-72
2024/04/13 04:02:56;;;;;;;4.75;2.65;;;;;;;;;;5409790;26;19996;-72
2024/04/13 04:05:22;;;;;;;3.75;1.92;;;;;;;;;;5408486;26;19999;-72
2024/04/13 04:07:47;;;;;;;4.43;2.03;;;;;;;;;;5402302;26;20456;-72
2024/04/13 04:10:12;;;;;;;4.32;2.28;;;;;;;;;;5408991;26;19992;-72
2024/04/13 04:12:38;;;;;;;3.38;2.00;;;;;;;;;;5396198;26;20356;-73
2024/04/13 04:15:04;;;;;;;3.58;1.92;;;;;;;;;;5411245;26;20003;-72
2024/04/13 04:17:29;;;;;;;4.60;1.88;;;;;;;;;;5410713;26;20007;-72
2024/04/13 04:19:54;;;;;;;3.97;1.95;;;;;;;;;;5404893;26;20011;-72
2024/04/13 04:22:19;;;;;;;3.97;2.08;;;;;;;;;;5409466;26;20418;-72
2024/04/13 04:24:45;;;;;;;4.40;2.22;;;;;;;;;;5396736;26;20464;-72
2024/04/13 04:27:10;;;;;;;4.05;1.98;;;;;;;;;;5400029;26;20003;-72
2024/04/13 04:29:35;;;;;;;4.57;2.55;;;;;;;;;;5412336;26;20000;-71
2024/04/13 04:32:01;;;;;;;4.57;1.83;;;;;;;;;;5410169;26;20010;-72
2024/04/13 04:34:27;;;;;;;4.70;2.45;;;;;;;;;;5407214;26;20006;-72
2024/04/13 04:36:52;;;;;;;3.38;2.03;;;;;;;;;;5397025;26;20018;-72
2024/04/13 04:39:18;;;;;;;4.07;2.25;;;;;;;;;;5385832;26;20837;-72
2024/04/13 04:41:43;;;;;;;3.05;1.80;;;;;;;;;;5388992;26;20019;-72
2024/04/13 04:44:08;;;;;;;5.60;2.20;;;;;;;;;;5396015;26;20003;-71
2024/04/13 04:46:34;;;;;;;5.90;2.40;;;;;;;;;;5394660;26;20027;-72
2024/04/13 04:48:59;;;;;;;5.13;2.40;;;;;;;;;;5395458;26;19992;-72
2024/04/13 04:51:24;;;;;;;3.67;2.00;;;;;;;;;;5402943;26;20475;-73
2024/04/13 04:53:49;;;;;;;4.72;2.50;;;;;;;;;;5399847;26;20014;-73
2024/04/13 04:56:15;;;;;;;5.53;2.33;;;;;;;;;;5405812;26;19999;-73
2024/04/13 04:58:41;;;;;;;3.60;1.90;;;;;;;;;;5406161;26;20003;-72
2024/04/13 05:01:07;;;;;;;6.53;2.50;;;;;;;;;;5389199;26;20373;-72
2024/04/13 05:03:32;;;;;;;4.25;2.40;;;;;;;;;;5402906;26;20464;-72
2024/04/13 05:05:57;;;;;;;5.18;2.55;;;;;;;;;;5398330;26;20472;-71
2024/04/13 05:08:22;;;;;;;4.28;1.95;;;;;;;;;;5405343;26;19996;-72
2024/04/13 05:10:47;;;;;;;4.00;2.00;;;;;;;;;;5404393;26;20003;-72
2024/04/13 05:13:16;;;;;;;3.05;1.88;;;;;;;;;;5409501;26;20681;-71
2024/04/13 05:15:41;;;;;;;7.07;2.40;;;;;;;;;;5404047;26;20000;-72
2024/04/13 05:18:07;;;;;;;4.57;2.13;;;;;;;;;;5407971;26;19999;-72
2024/04/13 05:20:33;;;;;;;3.72;1.90;;;;;;;;;;5398848;26;20004;-72
2024/04/13 05:22:58;;;;;;;4.82;2.22;;;;;;;;;;5396322;26;20056;-72
2024/04/13 05:25:24;;;;;;;3.88;2.20;;;;;;;;;;5410782;26;20015;-72
2024/04/13 05:27:49;;;;;;;3.65;1.83;;;;;;;;;;5408877;26;20012;-72
2024/04/13 05:30:14;;;;;;;3.97;2.00;;;;;;;;;;5405987;26;20000;-72
2024/04/13 05:32:40;;;;;;;4.68;2.00;;;;;;;;;;5403714;26;19996;-72
2024/04/13 05:35:06;;;;;;;4.22;2.38;;;;;;;;;;5400462;26;20008;-72
2024/04/13 05:37:31;;;;;;;5.15;2.17;;;;;;;;;;5398908;26;19999;-72
2024/04/13 05:39:57;;;;;;;5.07;2.47;;;;;;;;;;5403749;26;20000;-72
2024/04/13 05:42:22;;;;;;;5.93;2.30;;;;;;;;;;5407572;26;20011;-72
2024/04/13 05:44:47;;;;;;;4.25;2.53;;;;;;;;;;5400745;26;20010;-72
2024/04/13 05:47:12;;;;;;;4.22;2.58;;;;;;;;;;5402084;26;20000;-72
2024/04/13 05:49:38;;;;;;;5.05;2.20;;;;;;;;;;5400302;26;20452;-72
2024/04/13 05:52:04;;;;;;;5.53;3.00;;;;;;;;;;5391955;26;20090;-72
2024/04/13 05:54:29;;;;;;;6.03;3.13;;;;;;;;;;5390467;26;20342;-73
2024/04/13 05:56:54;;;;;;;4.63;2.53;;;;;;;;;;5393632;26;20016;-72
2024/04/13 05:59:19;;;;;;;4.85;2.67;;;;;;;;;;5408989;26;20466;-72
2024/04/13 06:01:45;;;;;;;4.55;2.47;;;;;;;;;;5407072;26;20019;-72
2024/04/13 06:04:10;;;;;;;5.80;2.55;;;;;;;;;;5409078;26;20014;-72
2024/04/13 06:06:36;;;;;;;4.43;3.17;;;;;;;;;;5401630;26;20044;-72
2024/04/13 06:09:01;;;;;;;5.18;2.67;;;;;;;;;;5406455;26;19996;-72
2024/04/13 06:11:26;;;;;;;4.35;2.85;;;;;;;;;;5407514;26;20007;-72
2024/04/13 06:13:51;;;;;;;4.00;2.00;;;;;;;;;;5387504;26;20006;-73
2024/04/13 06:16:16;;;;;;;5.80;2.67;;;;;;;;;;5391815;26;20011;-73
2024/04/13 06:18:42;;;;;;;7.35;2.83;;;;;;;;;;5409065;26;20027;-72
2024/04/13 06:21:07;;;;;;;7.35;4.45;;;;;;;;;;5404708;26;20007;-74
2024/04/13 06:23:32;;;;;;;5.32;2.45;;;;;;;;;;5387704;26;20073;-74
2024/04/13 06:25:57;;;;;;;5.15;3.00;;;;;;;;;;5398048;26;20037;-74
2024/04/13 06:28:23;;;;;;;4.93;2.20;;;;;;;;;;5411065;26;19988;-74
2024/04/13 06:30:48;;;;;;;4.32;2.42;;;;;;;;;;5401644;26;20012;-74
2024/04/13 06:33:14;;;;;;;5.85;2.63;;;;;;;;;;5400221;26;20466;-74
2024/04/13 06:35:39;;;;;;;3.88;2.08;;;;;;;;;;5398479;26;20436;-74
2024/04/13 06:38:04;;;;;;;6.80;4.30;;;;;;;;;;5401679;26;20361;-74
2024/04/13 06:40:30;;;;;;;3.90;2.30;;;;;;;;;;5386441;26;20000;-74
2024/04/13 06:42:55;;;;;;;5.55;2.88;;;;;;;;;;5399764;26;20018;-74
2024/04/13 06:45:20;;;;;;;4.93;2.45;;;;;;;;;;5393582;26;20012;-74
2024/04/13 06:47:45;;;;;;;5.28;2.13;;;;;;;;;;5401157;26;20003;-74
2024/04/13 06:50:11;;;;;;;4.88;2.47;;;;;;;;;;5396455;26;20417;-73
2024/04/13 06:52:36;;;;;;;5.85;2.30;;;;;;;;;;5388185;26;20082;-73
2024/04/13 06:55:01;;;;;;;8.27;2.30;;;;;;;;;;5395162;26;20082;-73
2024/04/13 06:57:26;;;;;;;4.25;2.63;;;;;;;;;;5385750;26;20004;-74
2024/04/13 06:59:52;;;;;;;4.68;2.35;;;;;;;;;;5389293;26;20008;-74
2024/04/13 07:02:17;;;;;;;4.80;2.45;;;;;;;;;;5405015;26;20003;-74
2024/04/13 07:04:42;;;;;;;6.35;2.70;;;;;;;;;;5409249;26;20011;-74
2024/04/13 07:07:08;;;;;;;4.38;2.25;;;;;;;;;;5409793;26;20470;-74
2024/04/13 07:09:33;;;;;;;7.22;2.63;;;;;;;;;;5408608;26;20006;-74
2024/04/13 07:11:58;;;;;;;4.43;2.30;;;;;;;;;;5398032;26;20073;-74
2024/04/13 07:14:24;;;;;;;4.25;2.10;;;;;;;;;;5395998;26;20000;-74
2024/04/13 07:16:50;;;;;;;4.38;2.60;;;;;;;;;;5403892;26;19996;-74
2024/04/13 07:19:15;;;;;;;5.13;2.55;;;;;;;;;;5412135;26;20031;-73
2024/04/13 07:21:41;;;;;;;6.72;2.80;;;;;;;;;;5405149;26;20351;-73
2024/04/13 07:24:06;;;;;;;5.68;2.45;;;;;;;;;;5402569;26;20007;-74
2024/04/13 07:26:31;;;;;;;6.80;2.65;;;;;;;;;;5404058;26;20364;-73
2024/04/13 07:28:56;;;;;;;6.50;2.80;;;;;;;;;;5395659;26;20006;-74
2024/04/13 07:31:21;;;;;;;6.40;2.80;;;;;;;;;;5394703;26;20069;-73
2024/04/13 07:33:47;;;;;;;5.45;3.08;;;;;;;;;;5395263;26;20004;-73
2024/04/13 07:36:12;;;;;;;7.97;2.88;;;;;;;;;;5396106;26;20073;-75
2024/04/13 07:38:37;;;;;;;6.18;3.03;;;;;;;;;;5390114;26;20028;-75
2024/04/13 07:41:03;;;;;;;6.30;3.60;;;;;;;;;;5383355;26;20035;-74
2024/04/13 07:43:30;;;;;;;5.65;3.00;;;;;;;;;;5395913;26;20011;-74
2024/04/13 07:45:55;;;;;;;6.38;3.88;;;;;;;;;;5398494;26;20340;-74
2024/04/13 07:48:20;;;;;;;7.05;3.70;;;;;;;;;;5407181;26;19999;-74
2024/04/13 07:50:45;;;;;;;8.70;3.38;;;;;;;;;;5389528;26;20081;-74
2024/04/13 07:53:10;;;;;;;6.40;3.25;;;;;;;;;;5389064;26;20007;-73
2024/04/13 07:55:36;;;;;;;5.80;3.35;;;;;;;;;;5389365;26;20012;-74
2024/04/13 07:58:01;;;;;;;10.75;4.05;;;;;;;;;;5401677;26;20012;-73
2024/04/13 08:00:26;;;;;;;6.35;3.10;;;;;;;;;;5390738;26;20000;-74
2024/04/13 08:02:52;;;;;;;8.52;3.22;;;;;;;;;;5393001;26;20019;-74
2024/04/13 08:05:17;;;;;;;7.20;3.30;;;;;;;;;;5396530;26;20008;-74
2024/04/13 08:07:42;;;;;;;6.57;3.13;;;;;;;;;;5383264;26;20443;-73
2024/04/13 08:10:07;;;;;;;7.55;3.22;;;;;;;;;;5385847;26;20070;-74
2024/04/13 08:12:32;;;;;;;10.47;3.40;;;;;;;;;;5392475;26;20012;-74
2024/04/13 08:14:58;;;;;;;6.68;3.92;;;;;;;;;;5397427;26;20876;-74
2024/04/13 08:17:26;;;;;;;6.50;3.45;;;;;;;;;;5387424;26;20431;-74
2024/04/13 08:19:51;;;;;;;6.97;3.50;;;;;;;;;;5388346;26;20077;-74
2024/04/13 08:22:17;;;;;;;6.53;3.38;;;;;;;;;;5380925;26;20016;-74
2024/04/13 08:24:43;;;;;;;12.05;3.63;;;;;;;;;;5391506;26;20007;-74
2024/04/13 08:27:09;;;;;;;6.68;3.63;;;;;;;;;;5397745;26;20004;-74
2024/04/13 08:29:34;;;;;;;9.32;3.78;;;;;;;;;;5396901;26;20495;-74
2024/04/13 08:31:59;;;;;;;7.13;3.42;;;;;;;;;;5387512;26;20000;-74
2024/04/13 08:34:26;;;;;;;9.95;3.55;;;;;;;;;;5397998;26;20073;-74
2024/04/13 08:36:52;;;;;;;5.25;2.95;;;;;;;;;;5385248;26;20073;-74
2024/04/13 08:39:18;;;;;;;7.13;2.65;;;;;;;;;;5396272;26;20418;-74
2024/04/13 08:41:56;;;;;;;7.38;3.05;;;;;;;;;;5399282;26;20073;-74
2024/04/13 08:44:22;;;;;;;4.68;2.20;;;;;;;;;;5407040;26;20010;-75
2024/04/13 08:46:48;;;;;;;4.88;2.10;;;;;;;;;;5390366;26;20364;-75
2024/04/13 08:49:15;;;;;;;3.92;1.90;;;;;;;;;;5387727;26;20040;-75
2024/04/13 08:51:43;;;;;;;3.70;1.60;;;;;;;;;;5385712;26;20001;-74
2024/04/13 08:54:09;;;;;;;4.93;1.80;;;;;;;;;;5395195;26;19996;-75
2024/04/13 08:56:36;;;;;;;4.43;1.90;;;;;;;;;;5394963;26;20004;-75
2024/04/13 08:59:05;;;;;;;5.20;1.95;;;;;;;;;;5393137;26;20123;-75
2024/04/13 09:01:33;;;;;;;5.78;1.80;;;;;;;;;;5382303;26;20086;-75
2024/04/13 09:03:58;;;;;;;4.78;2.30;;;;;;;;;;5392313;26;20004;-75
2024/04/13 09:06:24;;;;;;;6.68;2.15;;;;;;;;;;5392254;26;20467;-75
2024/04/13 09:08:49;;;;;;;6.93;2.03;;;;;;;;;;5395904;26;19999;-75
2024/04/13 09:11:15;;;;;;;5.22;1.80;;;;;;;;;;5402121;26;20004;-75
2024/04/13 09:13:40;;;;;;;5.72;2.08;;;;;;;;;;5388058;26;20022;-75
2024/04/13 09:16:06;;;;;;;6.13;2.25;;;;;;;;;;5395647;26;20004;-75
2024/04/13 09:18:32;;;;;;;5.10;1.80;;;;;;;;;;5409221;26;20015;-75
2024/04/13 09:21:00;;;;;;;5.38;1.90;;;;;;;;;;5407254;26;20003;-75
2024/04/13 09:23:27;;;;;;;4.47;1.60;;;;;;;;;;5409364;26;20014;-75
2024/04/13 09:26:06;;;;;;;4.00;1.50;;;;;;;;;;5403725;26;20041;-75
2024/04/13 09:28:38;;;;;;;6.20;1.45;;;;;;;;;;5399103;26;20052;-75
2024/04/13 09:31:03;;;;;;;;;;;;;;;;;;5398801;26;20012;-75
2024/04/13 09:33:28;;;;;;;3.40;1.10;;;;;;;;;;5406317;26;19948;-75
2024/04/13 09:35:57;;;;;;;4.30;1.60;;;;;;;;;;5413054;26;20045;-75
2024/04/13 09:38:22;;;;;;;3.92;1.50;;;;;;;;;;5414103;26;20044;-75
2024/04/13 09:40:48;;;;;;;3.57;2.27;;;;;;;;;;5410227;26;20371;-75
2024/04/13 09:43:20;;;;;;;4.05;1.73;;;;;;;;;;5410385;26;20237;-75
2024/04/13 09:45:46;;;;;;;5.60;1.75;;;;;;;;;;5398382;26;20011;-75
2024/04/13 09:48:13;;;;;;;6.70;1.95;;;;;;;;;;5408019;26;20018;-75
2024/04/13 09:50:38;;;;;;;4.25;2.00;;;;;;;;;;5413570;26;20010;-75
2024/04/13 09:53:04;;;;;;;6.80;1.87;;;;;;;;;;5408101;26;20004;-75
2024/04/13 09:55:30;;;;;;;4.70;1.73;;;;;;;;;;5404049;26;20294;-75
2024/04/13 09:57:56;;;;;;;3.83;1.80;;;;;;;;;;5402395;26;20011;-75
2024/04/13 10:00:22;;;;;;;4.85;1.70;;;;;;;;;;5402423;26;20460;-75
2024/04/13 10:02:48;;;;;;;7.35;2.13;;;;;;;;;;5406402;26;19996;-75
2024/04/13 10:05:14;;;;;;;5.43;2.00;;;;;;;;;;5411484;26;20006;-75
2024/04/13 10:07:39;;;;;;;3.88;1.98;;;;;;;;;;5408972;26;20012;-75
2024/04/13 10:10:07;;;;;;;4.15;1.95;;;;;;;;;;5404148;26;20000;-75
2024/04/13 10:12:35;;;;;;;6.45;2.40;;;;;;;;;;5397272;26;20004;-75
2024/04/13 10:15:01;;;;;;;3.45;1.80;;;;;;;;;;5397934;26;20016;-75
2024/04/13 10:17:27;;;;;;;4.65;1.75;;;;;;;;;;5413777;26;20000;-75
2024/04/13 10:19:52;;;;;;;4.18;1.50;;;;;;;;;;5408904;26;19999;-75
2024/04/13 10:22:19;;;;;;;6.15;1.98;;;;;;;;;;5401022;26;20022;-75
2024/04/13 10:24:44;;;;;;;6.97;1.88;;;;;;;;;;5395307;26;20069;-75
2024/04/13 10:27:10;;;;;;;4.57;2.15;;;;;;;;;;5402334;26;20007;-75
2024/04/13 10:29:42;;;;;;;4.93;2.03;;;;;;;;;;5394499;26;20018;-75
2024/04/13 10:32:22;;;;;;;5.68;1.95;;;;;;;;;;5392814;26;20004;-75
2024/04/13 10:34:48;;;;;;;5.07;1.65;;;;;;;;;;5400330;26;20337;-75
2024/04/13 10:37:23;;;;;;;4.10;2.15;;;;;;;;;;5406378;26;20072;-75
2024/04/13 10:40:08;;;;;;;4.22;1.55;;;;;;;;;;5408297;26;20360;-75
2024/04/13 10:42:36;;;;;;;3.92;1.80;;;;;;;;;;5401372;26;20018;-75
2024/04/13 10:45:13;;;;;;;3.80;1.40;;;;;;;;;;5408885;26;20207;-75
2024/04/13 10:47:39;;;;;;;3.83;1.40;;;;;;;;;;5413860;26;19999;-75
2024/04/13 10:50:05;;;;;;;5.35;2.08;;;;;;;;;;5408810;26;20022;-75
2024/04/13 10:52:31;;;;;;;4.10;1.25;;;;;;;;;;5405442;26;20407;-75
2024/04/13 10:54:57;;;;;;;6.63;1.73;;;;;;;;;;5397688;26;20004;-75
2024/04/13 10:57:23;;;;;;;5.18;1.50;;;;;;;;;;5401594;26;20479;-75
2024/04/13 10:59:48;;;;;;;3.78;1.50;;;;;;;;;;5412644;26;20003;-75
2024/04/13 11:02:13;;;;;;;5.90;1.65;;;;;;;;;;5409230;26;20003;-75
2024/04/13 11:04:42;;;;;;;3.60;1.40;;;;;;;;;;5413593;26;19995;-75
2024/04/13 11:07:08;;;;;;;4.43;1.40;;;;;;;;;;5411168;26;20237;-75
2024/04/13 11:09:33;;;;;;;5.07;1.65;;;;;;;;;;5400107;26;20032;-75
2024/04/13 11:11:58;;;;;;;3.25;1.38;;;;;;;;;;5409104;26;20521;-75
2024/04/13 11:14:23;;;;;;;5.30;1.30;;;;;;;;;;5407003;26;20301;-75
2024/04/13 11:16:49;;;;;;;4.40;1.13;;;;;;;;;;5409317;26;20245;-75
2024/04/13 11:19:14;;;;;;;5.07;1.27;;;;;;;;;;5405915;26;20721;-75
2024/04/13 11:21:40;;;;;;;4.07;1.73;;;;;;;;;;5406812;26;20018;-75
2024/04/13 11:24:08;;;;;;;4.03;1.40;;;;;;;;;;5398753;26;20012;-75
2024/04/13 11:26:33;;;;;;;6.28;1.33;;;;;;;;;;5413838;26;20000;-75
2024/04/13 11:28:59;;;;;;;4.32;1.45;;;;;;;;;;5408993;26;20011;-75
2024/04/13 11:31:24;;;;;;;3.50;1.30;;;;;;;;;;5411834;26;20003;-75
2024/04/13 11:33:50;;;;;;;3.45;1.20;;;;;;;;;;5401214;26;20357;-75
2024/04/13 11:36:18;;;;;;;5.45;1.35;;;;;;;;;;5408293;26;19995;-75
2024/04/13 11:38:44;;;;;;;3.20;1.33;;;;;;;;;;5407663;26;19999;-74
2024/04/13 11:41:10;;;;;;;2.78;0.82;;;;;;;;;;5412952;26;20460;-73
2024/04/13 11:43:35;;;;;;;4.63;1.38;;;;;;;;;;5409597;26;20000;-73
2024/04/13 11:46:00;;;;;;;2.50;1.08;;;;;;;;;;5407609;26;20000;-74
2024/04/13 11:48:29;;;;;;;2.58;1.00;;;;;;;;;;5404928;26;20000;-73
2024/04/13 11:50:55;;;;;;;4.88;1.38;;;;;;;;;;5402007;26;20039;-73
2024/04/13 11:53:21;;;;;;;4.25;1.42;;;;;;;;;;5406991;26;20413;-73
2024/04/13 11:55:48;;;;;;;3.50;1.00;;;;;;;;;;5411558;26;20018;-73
2024/04/13 11:58:22;;;;;;;4.82;1.50;;;;;;;;;;5406480;26;20007;-75
2024/04/13 12:00:47;;;;;;;3.70;1.10;;;;;;;;;;5406693;26;20478;-75
2024/04/13 12:03:13;;;;;;;3.40;1.30;;;;;;;;;;5409050;26;20003;-75
2024/04/13 12:05:38;;;;;;;4.10;1.13;;;;;;;;;;5400612;26;20229;-75
2024/04/13 12:08:03;;;;;;;4.37;1.47;;;;;;;;;;5411497;26;20367;-75
2024/04/13 12:10:29;;;;;;;2.63;0.90;;;;;;;;;;5410573;26;20257;-75
2024/04/13 12:12:54;;;;;;;2.00;0.80;;;;;;;;;;5401327;26;20000;-75
2024/04/13 12:15:19;;;;;;;3.55;1.25;;;;;;;;;;5405417;26;20014;-75
2024/04/13 12:17:44;;;;;;;4.27;1.37;;;;;;;;;;5413290;26;20003;-75
2024/04/13 12:20:10;;;;;;;13.07;1.77;;;;;;;;;;5406257;26;20274;-75
2024/04/13 12:22:35;;;;;;;5.20;1.67;;;;;;;;;;5412810;26;20245;-75
2024/04/13 12:25:00;;;;;;;5.90;1.30;;;;;;;;;;5395416;26;20081;-75
2024/04/13 12:27:25;;;;;;;4.23;1.10;;;;;;;;;;5399679;26;20245;-75
2024/04/13 12:29:51;;;;;;;3.40;1.05;;;;;;;;;;5400561;26;20330;-75
2024/04/13 12:32:16;;;;;;;1.80;1.00;;;;;;;;;;5403456;26;19992;-76
2024/04/13 12:34:41;;;;;;;3.03;1.13;;;;;;;;;;5391681;26;20610;-76
2024/04/13 12:37:06;;;;;;;3.30;1.10;;;;;;;;;;5399031;26;20267;-76
2024/04/13 12:39:31;;;;;;;2.28;0.77;;;;;;;;;;5408894;26;20233;-76
2024/04/13 12:41:57;;;;;;;2.47;1.13;;;;;;;;;;5403666;26;19996;-76
2024/04/13 12:44:22;;;;;;;5.38;1.20;;;;;;;;;;5403395;26;20285;-76
2024/04/13 12:46:48;;;;;;;4.70;1.03;;;;;;;;;;5403870;26;20011;-76
2024/04/13 12:49:13;;;;;;;3.08;1.25;;;;;;;;;;5392138;26;20249;-76
2024/04/13 12:51:38;;;;;;;3.20;1.20;;;;;;;;;;5396339;26;19996;-76
2024/04/13 12:54:03;;;;;;;3.13;1.00;;;;;;;;;;5394040;26;20012;-76
2024/04/13 12:56:29;;;;;;;3.53;1.00;;;;;;;;;;5406062;26;20004;-76
2024/04/13 12:58:54;;;;;;;2.30;1.00;;;;;;;;;;5404076;26;19996;-76
2024/04/13 13:01:20;;;;;;;2.70;0.83;;;;;;;;;;5398944;26;20221;-75
2024/04/13 13:03:45;;;;;;;1.88;0.98;;;;;;;;;;5411948;26;20265;-75
2024/04/13 13:06:10;;;;;;;2.58;0.73;;;;;;;;;;5408052;26;20004;-75
2024/04/13 13:08:35;;;;;;;3.40;1.20;;;;;;;;;;5402401;26;20084;-75
2024/04/13 13:11:01;;;;;;;4.13;1.17;;;;;;;;;;5405699;26;20480;-75
2024/04/13 13:13:26;;;;;;;3.90;1.03;;;;;;;;;;5401387;26;20351;-76
2024/04/13 13:15:52;;;;;;;2.03;0.90;;;;;;;;;;5399256;26;20225;-76
2024/04/13 13:18:18;;;;;;;3.47;1.13;;;;;;;;;;5410575;26;20651;-76
2024/04/13 13:20:43;;;;;;;2.00;1.08;;;;;;;;;;5408712;26;20050;-76
2024/04/13 13:23:09;;;;;;;5.40;1.10;;;;;;;;;;5403119;26;19997;-76
2024/04/13 13:25:35;;;;;;;4.63;1.25;;;;;;;;;;5402844;26;20237;-76
2024/04/13 13:28:01;;;;;;;4.18;1.23;;;;;;;;;;5394848;26;20019;-76
2024/04/13 13:30:26;;;;;;;1.95;1.00;;;;;;;;;;5398971;26;20004;-76
2024/04/13 13:32:52;;;;;;;3.10;1.07;;;;;;;;;;5409319;26;20013;-76
2024/04/13 13:35:17;;;;;;;2.63;0.93;;;;;;;;;;5404830;26;20274;-76
2024/04/13 13:37:43;;;;;;;3.33;1.00;;;;;;;;;;5404108;26;19995;-73
2024/04/13 13:40:11;;;;;;;2.47;1.00;;;;;;;;;;5399551;26;20369;-73
2024/04/13 13:42:36;;;;;;;3.10;1.02;;;;;;;;;;5399142;26;20288;-73
2024/04/13 13:45:02;;;;;;;1.93;0.80;;;;;;;;;;5410789;26;20003;-74
2024/04/13 13:47:27;;;;;;;1.48;0.77;;;;;;;;;;5410759;26;20315;-73
2024/04/13 13:49:52;;;;;;;2.80;1.10;;;;;;;;;;5407332;26;19995;-74
2024/04/13 13:52:18;;;;;;;4.87;1.27;;;;;;;;;;5403488;26;20737;-74
2024/04/13 13:54:43;;;;;;;5.90;1.30;;;;;;;;;;5389166;26;20738;-74
2024/04/13 13:57:09;;;;;;;2.33;0.93;;;;;;;;;;5394168;26;20234;-74
2024/04/13 13:59:34;;;;;;;4.47;1.20;;;;;;;;;;5395487;26;20794;-74
2024/04/13 14:01:59;;;;;;;7.10;1.43;;;;;;;;;;5406750;26;19999;-74
2024/04/13 14:04:24;;;;;;;3.67;1.92;;;;;;;;;;5405261;26;20229;-74
2024/04/13 14:06:50;;;;;;;2.83;1.03;;;;;;;;;;5399678;26;20006;-74
2024/04/13 14:09:15;;;;;;;2.00;1.10;;;;;;;;;;5402659;26;20253;-74
2024/04/13 14:11:41;;;;;;;3.40;1.20;;;;;;;;;;5409239;26;20293;-74
2024/04/13 14:14:06;;;;;;;3.95;1.20;;;;;;;;;;5410734;26;20469;-74
2024/04/13 14:16:31;;;;;;;2.40;1.00;;;;;;;;;;5406663;26;19992;-74
2024/04/13 14:18:57;;;;;;;1.88;0.85;;;;;;;;;;5405428;26;19992;-76
2024/04/13 14:21:25;;;;;;;4.60;1.10;;;;;;;;;;5403725;26;20015;-76
2024/04/13 14:23:50;;;;;;;2.55;0.80;;;;;;;;;;5407727;26;20341;-76
2024/04/13 14:26:16;;;;;;;1.93;0.80;;;;;;;;;;5414238;26;20004;-76
2024/04/13 14:28:41;;;;;;;2.57;0.93;;;;;;;;;;5413425;26;20246;-76
2024/04/13 14:31:06;;;;;;;3.80;1.10;;;;;;;;;;5412761;26;20273;-76
2024/04/13 14:33:31;;;;;;;2.13;0.70;;;;;;;;;;5408032;26;20698;-76
2024/04/13 14:36:00;;;;;;;2.93;1.00;;;;;;;;;;5399650;26;20222;-77